sensor_id;sensor_type;location;lat;lon;timestamp;temperature;humidity
18240;DHT22;9244;50.828;4.718;2023-06-26T00:00:20;22.50;99.90
18240;DHT22;9244;50.828;4.718;2023-06-26T00:02:45;22.40;99.90
18240;DHT22;9244;50.828;4.718;2023-06-26T00:05:11;22.40;99.90
18240;DHT22;9244;50.828;4.718;2023-06-26T00:07:37;22.30;99.90
18240;DHT22;9244;50.828;4.718;2023-06-26T00:10:03;22.30;99.90
18240;DHT22;9244;50.828;4.718;2023-06-26T00:12:30;22.20;99.90
18240;DHT22;9244;50.828;4.718;2023-06-26T00:14:56;22.10;99.90
18240;DHT22;9244;50.828;4.718;2023-06-26T00:17:22;22.10;99.90
18240;DHT22;9244;50.828;4.718;2023-06-26T00:19:48;22.10;99.90
18240;DHT22;9244;50.828;4.718;2023-06-26T00:22:14;21.90;99.90
18240;DHT22;9244;50.828;4.718;2023-06-26T00:24:40;21.90;99.90
18240;DHT22;9244;50.828;4.718;2023-06-26T00:27:06;21.80;99.90
18240;DHT22;9244;50.828;4.718;2023-06-26T00:29:31;21.80;99.90
18240;DHT22;9244;50.828;4.718;2023-06-26T00:31:57;21.70;99.90
18240;DHT22;9244;50.828;4.718;2023-06-26T00:34:22;21.60;99.90
18240;DHT22;9244;50.828;4.718;2023-06-26T00:36:48;21.70;99.90
18240;DHT22;9244;50.828;4.718;2023-06-26T00:39:14;21.60;99.90
18240;DHT22;9244;50.828;4.718;2023-06-26T00:41:40;21.60;99.90
18240;DHT22;9244;50.828;4.718;2023-06-26T00:44:06;21.60;99.90
18240;DHT22;9244;50.828;4.718;2023-06-26T00:46:32;21.60;99.90
18240;DHT22;9244;50.828;4.718;2023-06-26T00:49:03;21.50;99.90
18240;DHT22;9244;50.828;4.718;2023-06-26T00:51:30;21.40;99.90
18240;DHT22;9244;50.828;4.718;2023-06-26T00:53:56;21.30;99.90
18240;DHT22;9244;50.828;4.718;2023-06-26T00:56:22;21.30;99.90
18240;DHT22;9244;50.828;4.718;2023-06-26T00:58:48;21.20;99.90
18240;DHT22;9244;50.828;4.718;2023-06-26T01:01:14;21.10;99.90
18240;DHT22;9244;50.828;4.718;2023-06-26T01:03:48;21.10;99.90
18240;DHT22;9244;50.828;4.718;2023-06-26T01:06:17;20.90;99.90
18240;DHT22;9244;50.828;4.718;2023-06-26T01:08:43;20.80;99.90
18240;DHT22;9244;50.828;4.718;2023-06-26T01:11:10;20.80;99.90
18240;DHT22;9244;50.828;4.718;2023-06-26T01:13:36;20.80;99.90
18240;DHT22;9244;50.828;4.718;2023-06-26T01:16:02;20.70;99.90
18240;DHT22;9244;50.828;4.718;2023-06-26T01:18:29;20.70;99.90
18240;DHT22;9244;50.828;4.718;2023-06-26T01:20:56;20.70;99.90
18240;DHT22;9244;50.828;4.718;2023-06-26T01:23:46;20.60;99.90
18240;DHT22;9244;50.828;4.718;2023-06-26T01:26:23;20.50;99.90
18240;DHT22;9244;50.828;4.718;2023-06-26T01:28:52;20.40;99.90
18240;DHT22;9244;50.828;4.718;2023-06-26T01:31:19;20.40;99.90
18240;DHT22;9244;50.828;4.718;2023-06-26T01:33:46;20.30;99.90
18240;DHT22;9244;50.828;4.718;2023-06-26T01:36:12;20.30;99.90
18240;DHT22;9244;50.828;4.718;2023-06-26T01:38:38;20.30;99.90
18240;DHT22;9244;50.828;4.718;2023-06-26T01:41:05;20.10;99.90
18240;DHT22;9244;50.828;4.718;2023-06-26T01:46:46;20.10;99.90
18240;DHT22;9244;50.828;4.718;2023-06-26T01:50:11;20.10;99.90
18240;DHT22;9244;50.828;4.718;2023-06-26T01:52:27;20.00;99.90
18240;DHT22;9244;50.828;4.718;2023-06-26T01:55:43;20.00;99.90
18240;DHT22;9244;50.828;4.718;2023-06-26T01:57:51;19.90;99.90
18240;DHT22;9244;50.828;4.718;2023-06-26T02:00:18;19.90;99.90
18240;DHT22;9244;50.828;4.718;2023-06-26T02:02:44;19.90;99.90
18240;DHT22;9244;50.828;4.718;2023-06-26T02:05:12;19.80;99.90
18240;DHT22;9244;50.828;4.718;2023-06-26T02:07:38;19.90;99.90
18240;DHT22;9244;50.828;4.718;2023-06-26T02:10:04;19.80;99.90
18240;DHT22;9244;50.828;4.718;2023-06-26T02:12:29;19.80;99.90
18240;DHT22;9244;50.828;4.718;2023-06-26T02:14:55;19.80;99.90
18240;DHT22;9244;50.828;4.718;2023-06-26T02:17:21;19.70;99.90
18240;DHT22;9244;50.828;4.718;2023-06-26T02:19:46;19.70;99.90
18240;DHT22;9244;50.828;4.718;2023-06-26T02:22:15;19.70;99.90
18240;DHT22;9244;50.828;4.718;2023-06-26T02:24:42;19.60;99.90
18240;DHT22;9244;50.828;4.718;2023-06-26T02:27:09;19.60;99.90
18240;DHT22;9244;50.828;4.718;2023-06-26T02:29:34;19.60;99.90
18240;DHT22;9244;50.828;4.718;2023-06-26T02:32:00;19.40;99.90
18240;DHT22;9244;50.828;4.718;2023-06-26T02:34:26;19.40;99.90
18240;DHT22;9244;50.828;4.718;2023-06-26T02:36:51;19.40;99.90
18240;DHT22;9244;50.828;4.718;2023-06-26T02:39:20;19.30;99.90
18240;DHT22;9244;50.828;4.718;2023-06-26T02:41:45;19.10;99.90
18240;DHT22;9244;50.828;4.718;2023-06-26T02:44:11;19.10;99.90
18240;DHT22;9244;50.828;4.718;2023-06-26T02:46:38;19.10;99.90
18240;DHT22;9244;50.828;4.718;2023-06-26T02:49:03;19.00;99.90
18240;DHT22;9244;50.828;4.718;2023-06-26T02:51:31;19.00;99.90
18240;DHT22;9244;50.828;4.718;2023-06-26T02:53:57;19.10;99.90
18240;DHT22;9244;50.828;4.718;2023-06-26T02:56:22;19.00;99.90
18240;DHT22;9244;50.828;4.718;2023-06-26T02:58:48;18.80;99.90
18240;DHT22;9244;50.828;4.718;2023-06-26T03:01:14;18.80;99.90
18240;DHT22;9244;50.828;4.718;2023-06-26T03:03:41;18.90;99.90
18240;DHT22;9244;50.828;4.718;2023-06-26T03:06:07;18.90;99.90
18240;DHT22;9244;50.828;4.718;2023-06-26T03:08:36;18.80;99.90
18240;DHT22;9244;50.828;4.718;2023-06-26T03:11:01;18.80;99.90
18240;DHT22;9244;50.828;4.718;2023-06-26T03:13:27;18.80;99.90
18240;DHT22;9244;50.828;4.718;2023-06-26T03:15:53;18.80;99.90
18240;DHT22;9244;50.828;4.718;2023-06-26T03:18:18;18.90;99.90
18240;DHT22;9244;50.828;4.718;2023-06-26T03:20:44;18.80;99.90
18240;DHT22;9244;50.828;4.718;2023-06-26T03:23:09;18.80;99.90
18240;DHT22;9244;50.828;4.718;2023-06-26T03:25:35;18.80;99.90
18240;DHT22;9244;50.828;4.718;2023-06-26T03:28:01;18.80;99.90
18240;DHT22;9244;50.828;4.718;2023-06-26T03:30:26;18.80;99.90
18240;DHT22;9244;50.828;4.718;2023-06-26T03:32:52;18.70;99.90
18240;DHT22;9244;50.828;4.718;2023-06-26T03:35:17;18.70;99.90
18240;DHT22;9244;50.828;4.718;2023-06-26T03:37:43;18.70;99.90
18240;DHT22;9244;50.828;4.718;2023-06-26T03:40:09;18.60;99.90
18240;DHT22;9244;50.828;4.718;2023-06-26T03:42:35;18.50;99.90
18240;DHT22;9244;50.828;4.718;2023-06-26T03:45:01;18.60;99.90
18240;DHT22;9244;50.828;4.718;2023-06-26T03:47:26;18.50;99.90
18240;DHT22;9244;50.828;4.718;2023-06-26T03:49:52;18.40;99.90
18240;DHT22;9244;50.828;4.718;2023-06-26T03:52:17;18.40;99.90
18240;DHT22;9244;50.828;4.718;2023-06-26T03:54:43;18.40;99.90
18240;DHT22;9244;50.828;4.718;2023-06-26T03:57:09;18.30;99.90
18240;DHT22;9244;50.828;4.718;2023-06-26T03:59:35;18.30;99.90
18240;DHT22;9244;50.828;4.718;2023-06-26T04:02:01;18.20;99.90
18240;DHT22;9244;50.828;4.718;2023-06-26T04:04:27;18.30;99.90
18240;DHT22;9244;50.828;4.718;2023-06-26T04:06:53;18.30;99.90
18240;DHT22;9244;50.828;4.718;2023-06-26T04:09:18;18.20;99.90
18240;DHT22;9244;50.828;4.718;2023-06-26T04:11:44;18.20;99.90
18240;DHT22;9244;50.828;4.718;2023-06-26T04:14:10;18.20;99.90
18240;DHT22;9244;50.828;4.718;2023-06-26T04:16:36;18.20;99.90
18240;DHT22;9244;50.828;4.718;2023-06-26T04:19:01;18.20;99.90
18240;DHT22;9244;50.828;4.718;2023-06-26T04:21:28;18.20;99.90
18240;DHT22;9244;50.828;4.718;2023-06-26T04:23:53;18.20;99.90
18240;DHT22;9244;50.828;4.718;2023-06-26T04:26:19;18.10;99.90
18240;DHT22;9244;50.828;4.718;2023-06-26T04:28:45;18.10;99.90
18240;DHT22;9244;50.828;4.718;2023-06-26T04:31:10;18.20;99.90
18240;DHT22;9244;50.828;4.718;2023-06-26T04:33:37;18.10;99.90
18240;DHT22;9244;50.828;4.718;2023-06-26T04:36:06;18.00;99.90
18240;DHT22;9244;50.828;4.718;2023-06-26T04:38:32;18.00;99.90
18240;DHT22;9244;50.828;4.718;2023-06-26T04:40:58;18.20;99.90
18240;DHT22;9244;50.828;4.718;2023-06-26T04:43:24;18.10;99.90
18240;DHT22;9244;50.828;4.718;2023-06-26T04:45:50;18.20;99.90
18240;DHT22;9244;50.828;4.718;2023-06-26T04:48:15;18.20;99.90
18240;DHT22;9244;50.828;4.718;2023-06-26T04:50:41;18.20;99.90
18240;DHT22;9244;50.828;4.718;2023-06-26T04:53:07;18.20;99.90
18240;DHT22;9244;50.828;4.718;2023-06-26T04:55:32;18.20;99.90
18240;DHT22;9244;50.828;4.718;2023-06-26T04:57:58;18.20;99.90
18240;DHT22;9244;50.828;4.718;2023-06-26T05:00:24;18.10;99.90
18240;DHT22;9244;50.828;4.718;2023-06-26T05:02:51;18.10;99.90
18240;DHT22;9244;50.828;4.718;2023-06-26T05:05:27;18.10;99.90
18240;DHT22;9244;50.828;4.718;2023-06-26T05:07:56;18.10;99.90
18240;DHT22;9244;50.828;4.718;2023-06-26T05:10:22;18.00;99.90
18240;DHT22;9244;50.828;4.718;2023-06-26T05:12:48;18.10;99.90
18240;DHT22;9244;50.828;4.718;2023-06-26T05:15:14;18.30;99.90
18240;DHT22;9244;50.828;4.718;2023-06-26T05:17:39;18.30;99.90
18240;DHT22;9244;50.828;4.718;2023-06-26T05:20:05;18.10;99.90
18240;DHT22;9244;50.828;4.718;2023-06-26T05:22:34;18.00;99.90
18240;DHT22;9244;50.828;4.718;2023-06-26T05:25:02;18.20;99.90
18240;DHT22;9244;50.828;4.718;2023-06-26T05:27:28;18.40;99.90
18240;DHT22;9244;50.828;4.718;2023-06-26T05:29:54;18.70;99.90
18240;DHT22;9244;50.828;4.718;2023-06-26T05:32:20;19.50;99.90
18240;DHT22;9244;50.828;4.718;2023-06-26T05:34:49;20.30;99.90
18240;DHT22;9244;50.828;4.718;2023-06-26T05:37:20;21.00;99.90
18240;DHT22;9244;50.828;4.718;2023-06-26T05:39:46;21.40;99.90
18240;DHT22;9244;50.828;4.718;2023-06-26T05:42:12;22.00;99.90
18240;DHT22;9244;50.828;4.718;2023-06-26T05:44:38;22.70;99.90
18240;DHT22;9244;50.828;4.718;2023-06-26T05:47:04;22.80;99.90
18240;DHT22;9244;50.828;4.718;2023-06-26T05:49:30;22.90;99.90
18240;DHT22;9244;50.828;4.718;2023-06-26T05:51:55;22.80;99.90
18240;DHT22;9244;50.828;4.718;2023-06-26T05:54:23;23.40;99.90
18240;DHT22;9244;50.828;4.718;2023-06-26T05:56:51;23.60;99.90
18240;DHT22;9244;50.828;4.718;2023-06-26T05:59:18;23.80;99.90
18240;DHT22;9244;50.828;4.718;2023-06-26T06:01:44;23.80;99.90
18240;DHT22;9244;50.828;4.718;2023-06-26T06:04:10;23.20;99.90
18240;DHT22;9244;50.828;4.718;2023-06-26T06:06:35;23.40;99.90
18240;DHT22;9244;50.828;4.718;2023-06-26T06:09:01;23.30;99.90
18240;DHT22;9244;50.828;4.718;2023-06-26T06:11:26;24.00;99.90
18240;DHT22;9244;50.828;4.718;2023-06-26T06:13:52;24.40;99.90
18240;DHT22;9244;50.828;4.718;2023-06-26T06:16:18;24.70;99.90
18240;DHT22;9244;50.828;4.718;2023-06-26T06:18:43;24.50;99.90
18240;DHT22;9244;50.828;4.718;2023-06-26T06:21:09;24.40;99.90
18240;DHT22;9244;50.828;4.718;2023-06-26T06:23:34;24.40;99.90
18240;DHT22;9244;50.828;4.718;2023-06-26T06:26:00;25.00;99.90
18240;DHT22;9244;50.828;4.718;2023-06-26T06:28:25;24.90;99.90
18240;DHT22;9244;50.828;4.718;2023-06-26T06:30:51;24.80;99.90
18240;DHT22;9244;50.828;4.718;2023-06-26T06:33:17;25.80;99.90
18240;DHT22;9244;50.828;4.718;2023-06-26T06:35:42;25.30;99.90
18240;DHT22;9244;50.828;4.718;2023-06-26T06:38:08;24.60;99.90
18240;DHT22;9244;50.828;4.718;2023-06-26T06:40:34;24.70;99.90
18240;DHT22;9244;50.828;4.718;2023-06-26T06:42:59;24.40;99.90
18240;DHT22;9244;50.828;4.718;2023-06-26T06:45:25;24.80;99.90
18240;DHT22;9244;50.828;4.718;2023-06-26T06:47:50;25.60;99.90
18240;DHT22;9244;50.828;4.718;2023-06-26T06:50:16;25.20;99.90
18240;DHT22;9244;50.828;4.718;2023-06-26T06:52:43;25.00;99.90
18240;DHT22;9244;50.828;4.718;2023-06-26T06:55:09;26.60;99.90
18240;DHT22;9244;50.828;4.718;2023-06-26T06:57:36;26.10;99.90
18240;DHT22;9244;50.828;4.718;2023-06-26T07:00:04;26.00;99.90
18240;DHT22;9244;50.828;4.718;2023-06-26T07:02:30;26.30;99.90
18240;DHT22;9244;50.828;4.718;2023-06-26T07:04:56;25.60;99.90
18240;DHT22;9244;50.828;4.718;2023-06-26T07:07:21;24.30;99.90
18240;DHT22;9244;50.828;4.718;2023-06-26T07:09:47;25.50;99.90
18240;DHT22;9244;50.828;4.718;2023-06-26T07:12:13;25.50;99.90
18240;DHT22;9244;50.828;4.718;2023-06-26T07:14:39;25.50;99.90
18240;DHT22;9244;50.828;4.718;2023-06-26T07:17:04;25.10;99.90
18240;DHT22;9244;50.828;4.718;2023-06-26T07:19:30;25.30;99.90
18240;DHT22;9244;50.828;4.718;2023-06-26T07:21:56;24.90;99.90
18240;DHT22;9244;50.828;4.718;2023-06-26T07:24:21;25.80;99.90
18240;DHT22;9244;50.828;4.718;2023-06-26T07:26:47;26.00;99.90
18240;DHT22;9244;50.828;4.718;2023-06-26T07:29:13;24.90;99.90
18240;DHT22;9244;50.828;4.718;2023-06-26T07:31:38;24.80;99.90
18240;DHT22;9244;50.828;4.718;2023-06-26T07:34:04;24.60;99.90
18240;DHT22;9244;50.828;4.718;2023-06-26T07:36:29;25.00;99.90
18240;DHT22;9244;50.828;4.718;2023-06-26T07:38:55;24.50;99.90
18240;DHT22;9244;50.828;4.718;2023-06-26T07:41:21;24.50;99.90
18240;DHT22;9244;50.828;4.718;2023-06-26T07:43:46;24.70;99.90
18240;DHT22;9244;50.828;4.718;2023-06-26T07:46:12;24.80;99.90
18240;DHT22;9244;50.828;4.718;2023-06-26T07:48:37;24.70;99.90
18240;DHT22;9244;50.828;4.718;2023-06-26T07:51:03;25.10;99.90
18240;DHT22;9244;50.828;4.718;2023-06-26T07:53:29;24.60;99.90
18240;DHT22;9244;50.828;4.718;2023-06-26T07:55:54;25.00;99.90
18240;DHT22;9244;50.828;4.718;2023-06-26T07:58:20;25.30;99.90
18240;DHT22;9244;50.828;4.718;2023-06-26T08:00:45;25.50;99.90
18240;DHT22;9244;50.828;4.718;2023-06-26T08:03:11;26.20;99.90
18240;DHT22;9244;50.828;4.718;2023-06-26T08:05:36;26.00;99.90
18240;DHT22;9244;50.828;4.718;2023-06-26T08:08:02;25.50;99.90
18240;DHT22;9244;50.828;4.718;2023-06-26T08:10:28;25.50;99.90
18240;DHT22;9244;50.828;4.718;2023-06-26T08:12:55;25.10;99.90
18240;DHT22;9244;50.828;4.718;2023-06-26T08:15:21;24.30;99.90
18240;DHT22;9244;50.828;4.718;2023-06-26T08:17:47;24.10;99.90
18240;DHT22;9244;50.828;4.718;2023-06-26T08:20:12;24.00;99.90
18240;DHT22;9244;50.828;4.718;2023-06-26T08:22:39;24.00;99.90
18240;DHT22;9244;50.828;4.718;2023-06-26T08:25:05;24.50;99.90
18240;DHT22;9244;50.828;4.718;2023-06-26T08:27:31;25.50;99.90
18240;DHT22;9244;50.828;4.718;2023-06-26T08:29:57;24.90;99.90
18240;DHT22;9244;50.828;4.718;2023-06-26T08:32:23;24.80;99.90
18240;DHT22;9244;50.828;4.718;2023-06-26T08:34:48;23.70;99.90
18240;DHT22;9244;50.828;4.718;2023-06-26T08:37:14;23.50;99.90
18240;DHT22;9244;50.828;4.718;2023-06-26T08:39:39;23.10;99.90
18240;DHT22;9244;50.828;4.718;2023-06-26T08:42:05;23.00;99.90
18240;DHT22;9244;50.828;4.718;2023-06-26T08:44:31;23.50;99.90
18240;DHT22;9244;50.828;4.718;2023-06-26T08:46:59;24.30;99.90
18240;DHT22;9244;50.828;4.718;2023-06-26T08:49:33;24.00;99.90
18240;DHT22;9244;50.828;4.718;2023-06-26T08:52:05;24.00;99.90
18240;DHT22;9244;50.828;4.718;2023-06-26T08:54:36;23.70;99.90
18240;DHT22;9244;50.828;4.718;2023-06-26T08:57:05;23.60;99.90
18240;DHT22;9244;50.828;4.718;2023-06-26T08:59:32;23.80;99.90
18240;DHT22;9244;50.828;4.718;2023-06-26T09:01:58;24.30;99.90
18240;DHT22;9244;50.828;4.718;2023-06-26T09:04:23;24.50;99.90
18240;DHT22;9244;50.828;4.718;2023-06-26T09:06:50;24.90;99.90
18240;DHT22;9244;50.828;4.718;2023-06-26T09:09:16;25.30;99.90
18240;DHT22;9244;50.828;4.718;2023-06-26T09:11:41;25.10;99.90
18240;DHT22;9244;50.828;4.718;2023-06-26T09:14:07;24.70;99.90
18240;DHT22;9244;50.828;4.718;2023-06-26T09:16:45;25.10;99.90
18240;DHT22;9244;50.828;4.718;2023-06-26T09:19:12;25.30;99.90
18240;DHT22;9244;50.828;4.718;2023-06-26T09:21:42;25.10;99.90
18240;DHT22;9244;50.828;4.718;2023-06-26T09:24:09;25.60;99.90
18240;DHT22;9244;50.828;4.718;2023-06-26T09:26:40;25.50;99.10
18240;DHT22;9244;50.828;4.718;2023-06-26T09:29:06;25.00;99.90
18240;DHT22;9244;50.828;4.718;2023-06-26T09:31:33;24.80;99.60
18240;DHT22;9244;50.828;4.718;2023-06-26T09:34:02;23.60;99.90
18240;DHT22;9244;50.828;4.718;2023-06-26T09:36:30;24.10;99.90
18240;DHT22;9244;50.828;4.718;2023-06-26T09:39:03;25.10;99.90
18240;DHT22;9244;50.828;4.718;2023-06-26T09:41:43;25.60;99.10
18240;DHT22;9244;50.828;4.718;2023-06-26T09:44:11;24.90;98.10
18240;DHT22;9244;50.828;4.718;2023-06-26T09:46:41;24.30;99.40
18240;DHT22;9244;50.828;4.718;2023-06-26T09:49:10;24.60;99.40
18240;DHT22;9244;50.828;4.718;2023-06-26T09:51:38;24.60;99.50
18240;DHT22;9244;50.828;4.718;2023-06-26T09:54:04;25.30;99.80
18240;DHT22;9244;50.828;4.718;2023-06-26T09:56:31;25.10;99.30
18240;DHT22;9244;50.828;4.718;2023-06-26T09:59:03;25.10;99.00
18240;DHT22;9244;50.828;4.718;2023-06-26T10:01:30;25.00;98.60
18240;DHT22;9244;50.828;4.718;2023-06-26T10:03:57;24.10;99.10
18240;DHT22;9244;50.828;4.718;2023-06-26T10:08:57;23.40;98.20
18240;DHT22;9244;50.828;4.718;2023-06-26T10:11:26;23.00;98.80
18240;DHT22;9244;50.828;4.718;2023-06-26T10:13:54;23.60;98.80
18240;DHT22;9244;50.828;4.718;2023-06-26T10:16:24;23.80;98.60
18240;DHT22;9244;50.828;4.718;2023-06-26T10:18:53;23.10;99.90
18240;DHT22;9244;50.828;4.718;2023-06-26T10:21:20;23.70;99.90
18240;DHT22;9244;50.828;4.718;2023-06-26T10:23:48;23.80;99.90
18240;DHT22;9244;50.828;4.718;2023-06-26T10:26:15;23.70;99.90
18240;DHT22;9244;50.828;4.718;2023-06-26T10:28:43;23.60;99.90
18240;DHT22;9244;50.828;4.718;2023-06-26T10:31:11;23.50;99.90
18240;DHT22;9244;50.828;4.718;2023-06-26T10:33:37;23.20;99.90
18240;DHT22;9244;50.828;4.718;2023-06-26T10:36:20;23.70;99.90
18240;DHT22;9244;50.828;4.718;2023-06-26T10:38:55;23.60;99.90
18240;DHT22;9244;50.828;4.718;2023-06-26T10:41:22;23.20;99.90
18240;DHT22;9244;50.828;4.718;2023-06-26T10:46:18;23.80;99.90
18240;DHT22;9244;50.828;4.718;2023-06-26T10:48:57;23.90;99.90
18240;DHT22;9244;50.828;4.718;2023-06-26T10:51:24;23.50;99.90
18240;DHT22;9244;50.828;4.718;2023-06-26T10:53:55;23.10;99.90
18240;DHT22;9244;50.828;4.718;2023-06-26T10:56:21;23.20;99.90
18240;DHT22;9244;50.828;4.718;2023-06-26T10:58:47;23.20;99.90
18240;DHT22;9244;50.828;4.718;2023-06-26T11:01:21;23.20;99.90
18240;DHT22;9244;50.828;4.718;2023-06-26T11:03:49;23.70;99.80
18240;DHT22;9244;50.828;4.718;2023-06-26T11:06:20;23.60;97.80
18240;DHT22;9244;50.828;4.718;2023-06-26T11:08:47;23.60;99.90
18240;DHT22;9244;50.828;4.718;2023-06-26T11:11:12;23.80;99.60
18240;DHT22;9244;50.828;4.718;2023-06-26T11:13:40;24.10;98.90
18240;DHT22;9244;50.828;4.718;2023-06-26T11:16:05;24.10;98.80
18240;DHT22;9244;50.828;4.718;2023-06-26T11:18:32;23.90;98.60
18240;DHT22;9244;50.828;4.718;2023-06-26T11:21:11;24.40;99.70
18240;DHT22;9244;50.828;4.718;2023-06-26T11:23:40;25.00;99.50
18240;DHT22;9244;50.828;4.718;2023-06-26T11:26:21;24.60;98.40
18240;DHT22;9244;50.828;4.718;2023-06-26T11:28:51;23.40;98.10
18240;DHT22;9244;50.828;4.718;2023-06-26T11:31:31;23.20;99.30
18240;DHT22;9244;50.828;4.718;2023-06-26T11:33:58;23.40;98.30
18240;DHT22;9244;50.828;4.718;2023-06-26T11:36:25;24.20;96.80
18240;DHT22;9244;50.828;4.718;2023-06-26T11:39:01;24.40;97.30
18240;DHT22;9244;50.828;4.718;2023-06-26T11:41:30;24.80;97.80
18240;DHT22;9244;50.828;4.718;2023-06-26T11:44:00;25.10;97.40
18240;DHT22;9244;50.828;4.718;2023-06-26T11:46:27;24.90;97.70
18240;DHT22;9244;50.828;4.718;2023-06-26T11:48:53;24.80;96.80
18240;DHT22;9244;50.828;4.718;2023-06-26T11:51:19;24.10;97.10
18240;DHT22;9244;50.828;4.718;2023-06-26T11:53:46;24.00;97.70
18240;DHT22;9244;50.828;4.718;2023-06-26T11:56:16;23.90;97.30
18240;DHT22;9244;50.828;4.718;2023-06-26T11:59:02;24.10;99.20
18240;DHT22;9244;50.828;4.718;2023-06-26T12:01:39;24.80;97.60
18240;DHT22;9244;50.828;4.718;2023-06-26T12:04:07;25.10;96.40
18240;DHT22;9244;50.828;4.718;2023-06-26T12:06:39;25.00;96.50
18240;DHT22;9244;50.828;4.718;2023-06-26T12:09:07;25.60;96.70
18240;DHT22;9244;50.828;4.718;2023-06-26T12:11:35;25.00;95.40
18240;DHT22;9244;50.828;4.718;2023-06-26T12:14:02;24.60;96.80
18240;DHT22;9244;50.828;4.718;2023-06-26T12:16:30;25.00;97.30
18240;DHT22;9244;50.828;4.718;2023-06-26T12:19:14;24.70;97.30
18240;DHT22;9244;50.828;4.718;2023-06-26T12:24:07;25.40;97.20
18240;DHT22;9244;50.828;4.718;2023-06-26T12:26:33;24.90;96.10
18240;DHT22;9244;50.828;4.718;2023-06-26T12:29:06;25.20;95.90
18240;DHT22;9244;50.828;4.718;2023-06-26T12:31:33;25.00;96.50
18240;DHT22;9244;50.828;4.718;2023-06-26T12:34:00;25.30;95.50
18240;DHT22;9244;50.828;4.718;2023-06-26T12:36:26;25.10;95.00
18240;DHT22;9244;50.828;4.718;2023-06-26T12:38:53;25.20;94.70
18240;DHT22;9244;50.828;4.718;2023-06-26T12:41:20;25.00;95.80
18240;DHT22;9244;50.828;4.718;2023-06-26T12:43:48;25.00;94.90
18240;DHT22;9244;50.828;4.718;2023-06-26T12:46:14;25.40;95.50
18240;DHT22;9244;50.828;4.718;2023-06-26T12:48:43;25.30;95.10
18240;DHT22;9244;50.828;4.718;2023-06-26T12:51:14;25.60;95.50
18240;DHT22;9244;50.828;4.718;2023-06-26T12:53:41;25.40;95.30
18240;DHT22;9244;50.828;4.718;2023-06-26T12:56:13;24.40;95.90
18240;DHT22;9244;50.828;4.718;2023-06-26T12:58:41;24.10;97.40
18240;DHT22;9244;50.828;4.718;2023-06-26T13:01:07;23.90;97.40
18240;DHT22;9244;50.828;4.718;2023-06-26T13:03:40;23.70;97.70
18240;DHT22;9244;50.828;4.718;2023-06-26T13:06:05;23.80;97.30
18240;DHT22;9244;50.828;4.718;2023-06-26T13:08:33;24.60;97.30
18240;DHT22;9244;50.828;4.718;2023-06-26T13:10:59;24.70;97.40
18240;DHT22;9244;50.828;4.718;2023-06-26T13:13:25;24.20;96.30
18240;DHT22;9244;50.828;4.718;2023-06-26T13:15:51;24.00;95.20
18240;DHT22;9244;50.828;4.718;2023-06-26T13:18:16;23.60;94.50
18240;DHT22;9244;50.828;4.718;2023-06-26T13:20:42;24.10;95.20
18240;DHT22;9244;50.828;4.718;2023-06-26T13:23:07;25.00;95.60
18240;DHT22;9244;50.828;4.718;2023-06-26T13:25:33;25.40;95.30
18240;DHT22;9244;50.828;4.718;2023-06-26T13:27:59;24.90;94.50
18240;DHT22;9244;50.828;4.718;2023-06-26T13:30:25;24.70;94.60
18240;DHT22;9244;50.828;4.718;2023-06-26T13:32:50;24.50;94.60
18240;DHT22;9244;50.828;4.718;2023-06-26T13:35:16;24.50;94.40
18240;DHT22;9244;50.828;4.718;2023-06-26T13:37:42;24.70;97.20
18240;DHT22;9244;50.828;4.718;2023-06-26T13:40:08;24.70;96.60
18240;DHT22;9244;50.828;4.718;2023-06-26T13:42:34;24.50;95.90
18240;DHT22;9244;50.828;4.718;2023-06-26T13:45:02;23.90;96.10
18240;DHT22;9244;50.828;4.718;2023-06-26T13:47:28;24.00;96.00
18240;DHT22;9244;50.828;4.718;2023-06-26T13:49:54;23.50;98.20
18240;DHT22;9244;50.828;4.718;2023-06-26T13:52:20;23.50;97.70
18240;DHT22;9244;50.828;4.718;2023-06-26T13:54:46;23.60;96.90
18240;DHT22;9244;50.828;4.718;2023-06-26T13:57:11;24.00;96.50
18240;DHT22;9244;50.828;4.718;2023-06-26T13:59:38;23.70;95.50
18240;DHT22;9244;50.828;4.718;2023-06-26T14:02:07;23.60;96.20
18240;DHT22;9244;50.828;4.718;2023-06-26T14:04:33;23.90;95.50
18240;DHT22;9244;50.828;4.718;2023-06-26T14:06:59;24.10;95.20
18240;DHT22;9244;50.828;4.718;2023-06-26T14:09:25;24.00;95.50
18240;DHT22;9244;50.828;4.718;2023-06-26T14:11:50;24.40;96.20
18240;DHT22;9244;50.828;4.718;2023-06-26T14:14:16;24.80;95.40
18240;DHT22;9244;50.828;4.718;2023-06-26T14:16:42;25.10;96.30
18240;DHT22;9244;50.828;4.718;2023-06-26T14:19:07;25.10;95.20
18240;DHT22;9244;50.828;4.718;2023-06-26T14:21:41;24.50;95.30
18240;DHT22;9244;50.828;4.718;2023-06-26T14:24:07;24.30;95.80
18240;DHT22;9244;50.828;4.718;2023-06-26T14:26:32;24.50;96.40
18240;DHT22;9244;50.828;4.718;2023-06-26T14:29:02;24.30;95.90
18240;DHT22;9244;50.828;4.718;2023-06-26T14:31:28;24.30;96.90
18240;DHT22;9244;50.828;4.718;2023-06-26T14:33:54;24.10;95.60
18240;DHT22;9244;50.828;4.718;2023-06-26T14:36:20;23.80;95.50
18240;DHT22;9244;50.828;4.718;2023-06-26T14:38:45;23.60;96.70
18240;DHT22;9244;50.828;4.718;2023-06-26T14:41:11;23.30;95.90
18240;DHT22;9244;50.828;4.718;2023-06-26T14:43:38;23.40;96.00
18240;DHT22;9244;50.828;4.718;2023-06-26T14:46:04;23.50;96.40
18240;DHT22;9244;50.828;4.718;2023-06-26T14:48:29;23.50;96.00
18240;DHT22;9244;50.828;4.718;2023-06-26T14:50:55;23.50;95.90
18240;DHT22;9244;50.828;4.718;2023-06-26T14:53:21;23.30;95.10
18240;DHT22;9244;50.828;4.718;2023-06-26T14:55:46;23.10;95.80
18240;DHT22;9244;50.828;4.718;2023-06-26T14:58:12;23.50;95.70
18240;DHT22;9244;50.828;4.718;2023-06-26T15:00:37;23.60;98.10
18240;DHT22;9244;50.828;4.718;2023-06-26T15:03:03;23.60;96.70
18240;DHT22;9244;50.828;4.718;2023-06-26T15:05:29;23.60;97.50
18240;DHT22;9244;50.828;4.718;2023-06-26T15:07:54;23.40;99.60
18240;DHT22;9244;50.828;4.718;2023-06-26T15:10:20;23.50;96.50
18240;DHT22;9244;50.828;4.718;2023-06-26T15:12:47;23.50;96.70
18240;DHT22;9244;50.828;4.718;2023-06-26T15:15:12;23.60;96.50
18240;DHT22;9244;50.828;4.718;2023-06-26T15:17:39;24.10;97.50
18240;DHT22;9244;50.828;4.718;2023-06-26T15:20:05;24.30;96.60
18240;DHT22;9244;50.828;4.718;2023-06-26T15:22:31;24.00;97.00
18240;DHT22;9244;50.828;4.718;2023-06-26T15:24:56;23.50;98.00
18240;DHT22;9244;50.828;4.718;2023-06-26T15:27:22;23.40;99.00
18240;DHT22;9244;50.828;4.718;2023-06-26T15:29:47;23.40;99.50
18240;DHT22;9244;50.828;4.718;2023-06-26T15:32:13;23.30;98.60
18240;DHT22;9244;50.828;4.718;2023-06-26T15:34:41;23.40;98.90
18240;DHT22;9244;50.828;4.718;2023-06-26T15:37:07;23.00;99.90
18240;DHT22;9244;50.828;4.718;2023-06-26T15:39:32;22.80;98.20
18240;DHT22;9244;50.828;4.718;2023-06-26T15:41:58;22.90;98.40
18240;DHT22;9244;50.828;4.718;2023-06-26T15:44:24;22.60;98.70
18240;DHT22;9244;50.828;4.718;2023-06-26T15:46:50;22.60;98.60
18240;DHT22;9244;50.828;4.718;2023-06-26T15:49:16;22.40;99.70
18240;DHT22;9244;50.828;4.718;2023-06-26T15:51:41;22.50;99.60
18240;DHT22;9244;50.828;4.718;2023-06-26T15:54:07;22.60;99.30